Time;durP1;ratioP1;P1;durP2;ratioP2;P2;SDS_P1;SDS_P2;PMS_P1;PMS_P2;Temp;Humidity;BMP_temperature;BMP_pressure;BME280_temperature;BME280_humidity;BME280_pressure;Samples;Min_cycle;Max_cycle;Signal;HPM_P1;HPM_P2
2022/05/06 00:01:43;;;;;;;13.00;11.80;;;;;;;11.84;100.00;99957.00;5090666;28;20031;-80
2022/05/06 00:04:09;;;;;;;12.50;11.38;;;;;;;11.84;100.00;99947.25;5089362;28;20075;-80
2022/05/06 00:06:36;;;;;;;12.45;11.35;;;;;;;11.83;100.00;99948.25;5088936;28;20030;-80
2022/05/06 00:09:03;;;;;;;14.27;12.02;;;;;;;11.83;100.00;99942.13;5090033;28;20036;-79
2022/05/06 00:11:31;;;;;;;13.25;11.85;;;;;;;11.84;100.00;99941.97;5090227;28;20032;-80
2022/05/06 00:13:57;;;;;;;13.40;12.10;;;;;;;11.85;100.00;99942.81;5090236;28;20020;-78
2022/05/06 00:16:24;;;;;;;14.38;12.88;;;;;;;11.88;100.00;99951.31;5089931;28;20218;-79
2022/05/06 00:18:50;;;;;;;13.13;11.98;;;;;;;11.88;100.00;99948.66;5090416;28;20466;-80
2022/05/06 00:21:15;;;;;;;13.20;11.88;;;;;;;11.88;100.00;99953.97;5085773;28;20074;-80
2022/05/06 00:23:41;;;;;;;12.98;11.73;;;;;;;11.93;100.00;99944.75;5090514;28;20536;-79
2022/05/06 00:26:08;;;;;;;13.30;12.00;;;;;;;11.93;100.00;99950.03;5090362;28;20111;-79
2022/05/06 00:28:33;;;;;;;13.40;12.02;;;;;;;11.95;100.00;99943.66;5090030;28;20175;-80
2022/05/06 00:31:01;;;;;;;13.27;11.48;;;;;;;11.96;100.00;99941.84;5089179;28;20079;-79
2022/05/06 00:33:27;;;;;;;12.10;10.90;;;;;;;11.95;100.00;99937.53;5090249;28;20107;-80
2022/05/06 00:35:54;;;;;;;12.30;11.20;;;;;;;11.94;100.00;99941.13;5090109;28;20039;-79
2022/05/06 00:38:19;;;;;;;11.57;10.57;;;;;;;11.95;100.00;99941.00;5089634;28;20066;-80
2022/05/06 00:40:45;;;;;;;10.73;9.70;;;;;;;11.98;100.00;99947.81;5086096;28;20513;-79
2022/05/06 00:43:11;;;;;;;10.73;9.75;;;;;;;11.96;100.00;99945.28;5089860;28;20028;-80
2022/05/06 00:45:47;;;;;;;10.32;9.23;;;;;;;11.99;100.00;99946.84;5090090;28;20107;-80
2022/05/06 00:48:13;;;;;;;9.77;8.85;;;;;;;11.98;100.00;99937.22;5088235;28;20024;-80
2022/05/06 00:50:39;;;;;;;10.57;9.63;;;;;;;11.99;100.00;99938.91;5089738;28;20074;-80
2022/05/06 00:53:07;;;;;;;10.30;9.43;;;;;;;11.98;100.00;99937.22;5088424;28;20064;-80
2022/05/06 00:55:34;;;;;;;9.88;9.07;;;;;;;11.95;100.00;99934.88;5089700;28;20054;-80
2022/05/06 00:57:59;;;;;;;10.73;9.63;;;;;;;11.95;100.00;99926.94;5086305;28;20369;-80
2022/05/06 01:00:25;;;;;;;10.00;9.10;;;;;;;11.97;100.00;99935.56;5086122;28;20105;-80
2022/05/06 01:02:50;;;;;;;10.25;9.38;;;;;;;11.97;100.00;99925.81;5087693;28;20040;-80
2022/05/06 01:05:16;;;;;;;10.43;8.93;;;;;;;11.96;100.00;99923.34;5087501;28;20032;-80
2022/05/06 01:07:45;;;;;;;9.43;8.63;;;;;;;11.95;100.00;99916.38;5088709;28;20052;-80
2022/05/06 01:10:11;;;;;;;9.38;8.57;;;;;;;11.92;100.00;99908.69;5090100;28;20412;-80
2022/05/06 01:12:37;;;;;;;9.38;8.65;;;;;;;11.94;100.00;99919.97;5088591;28;20031;-80
2022/05/06 01:15:22;;;;;;;8.05;7.38;;;;;;;11.90;100.00;99914.97;5088679;28;20492;-80
2022/05/06 01:17:53;;;;;;;7.95;7.18;;;;;;;11.90;100.00;99924.69;5090780;28;20036;-80
2022/05/06 01:20:20;;;;;;;7.65;6.97;;;;;;;11.86;100.00;99913.59;5091932;28;20093;-81
2022/05/06 01:22:48;;;;;;;7.80;7.07;;;;;;;11.86;100.00;99924.16;5089596;28;20024;-80
2022/05/06 01:25:14;;;;;;;7.65;7.05;;;;;;;11.86;100.00;99918.03;5092998;28;20028;-80
2022/05/06 01:28:04;;;;;;;8.40;6.97;;;;;;;11.86;100.00;99918.88;5092831;28;20527;-80
2022/05/06 01:30:32;;;;;;;8.07;7.37;;;;;;;11.86;100.00;99923.31;5086414;28;20055;-81
2022/05/06 01:33:06;;;;;;;6.85;6.22;;;;;;;11.84;100.00;99923.47;5093608;28;20823;-79
2022/05/06 01:35:46;;;;;;;7.53;6.93;;;;;;;11.83;100.00;99919.19;5091448;28;20035;-79
2022/05/06 01:38:19;;;;;;;7.05;6.45;;;;;;;11.81;100.00;99923.75;5092694;28;20460;-79
2022/05/06 01:40:52;;;;;;;7.45;6.85;;;;;;;11.81;100.00;99926.41;5091500;28;20028;-79
2022/05/06 01:43:22;;;;;;;6.50;6.00;;;;;;;11.79;100.00;99927.50;5087564;28;20032;-79
2022/05/06 01:45:50;;;;;;;8.77;6.60;;;;;;;11.79;100.00;99923.06;5096044;28;20073;-79
2022/05/06 01:48:18;;;;;;;7.72;6.93;;;;;;;11.81;100.00;99918.47;5087335;28;20032;-80
2022/05/06 01:50:49;;;;;;;6.80;5.55;;;;;;;11.82;100.00;99922.78;5087929;28;20386;-80
2022/05/06 01:53:18;;;;;;;6.60;6.00;;;;;;;11.85;100.00;99922.50;5087570;28;20036;-80
2022/05/06 01:55:47;;;;;;;6.55;6.05;;;;;;;11.83;100.00;99916.53;5091641;28;20035;-80
2022/05/06 01:58:14;;;;;;;6.75;6.25;;;;;;;11.84;100.00;99915.53;5090925;28;20123;-79
2022/05/06 02:00:49;;;;;;;6.15;5.60;;;;;;;11.82;100.00;99912.22;5091440;28;20031;-80
2022/05/06 02:06:15;;;;;;;5.63;5.22;;;;;;;11.76;100.00;99911.94;5064604;28;20032;-79
2022/05/06 02:08:43;;;;;;;6.40;5.80;;;;;;;11.70;100.00;99910.66;5092490;28;20028;-79
2022/05/06 02:11:15;;;;;;;6.00;5.45;;;;;;;11.70;100.00;99909.81;5091212;28;20125;-79
2022/05/06 02:13:41;;;;;;;5.10;4.80;;;;;;;11.64;100.00;99898.00;5090703;28;20032;-80
2022/05/06 02:16:38;;;;;;;5.18;4.78;;;;;;;11.63;100.00;99906.91;5052884;28;20044;-80
2022/05/06 02:19:16;;;;;;;5.85;4.97;;;;;;;11.59;100.00;99902.91;5090836;28;20073;-79
2022/05/06 02:22:06;;;;;;;5.75;5.35;;;;;;;11.59;100.00;99892.31;5089204;28;20086;-80
2022/05/06 02:24:55;;;;;;;5.28;4.88;;;;;;;11.60;100.00;99895.81;5072849;28;20475;-79
2022/05/06 02:27:42;;;;;;;6.10;5.03;;;;;;;11.63;100.00;99891.06;5089437;28;20068;-79
2022/05/06 02:33:13;;;;;;;5.00;4.70;;;;;;;11.59;100.00;99887.03;5115657;27;20101;-80
2022/05/06 02:35:44;;;;;;;5.35;4.80;;;;;;;11.57;100.00;99890.78;5091398;28;20032;-79
2022/05/06 02:38:12;;;;;;;5.30;4.90;;;;;;;11.56;100.00;99889.94;5090725;28;20498;-79
2022/05/06 02:40:39;;;;;;;5.35;4.85;;;;;;;11.56;100.00;99889.94;5091102;28;20130;-79
2022/05/06 02:43:06;;;;;;;4.40;4.10;;;;;;;11.55;100.00;99888.28;5090752;28;20036;-80
2022/05/06 02:45:34;;;;;;;4.75;4.20;;;;;;;11.53;100.00;99887.59;5092586;28;20434;-80
2022/05/06 02:48:01;;;;;;;4.63;4.18;;;;;;;11.53;100.00;99889.41;5103231;28;20031;-80
2022/05/06 02:50:29;;;;;;;4.65;4.35;;;;;;;11.51;100.00;99884.25;5091089;28;20039;-80
2022/05/06 02:52:55;;;;;;;5.30;4.80;;;;;;;11.54;100.00;99885.78;5090618;28;20429;-81
2022/05/06 02:55:23;;;;;;;4.85;4.55;;;;;;;11.49;100.00;99886.19;5089856;28;20032;-80
2022/05/06 02:57:51;;;;;;;5.00;4.70;;;;;;;11.50;100.00;99882.56;5090857;28;20035;-79
2022/05/06 03:00:17;;;;;;;5.35;4.95;;;;;;;11.52;100.00;99883.28;5087250;28;20024;-81
2022/05/06 03:02:43;;;;;;;4.50;4.15;;;;;;;11.52;100.00;99883.28;5090188;28;20039;-80
2022/05/06 03:05:10;;;;;;;4.32;4.03;;;;;;;11.51;100.00;99881.59;5089178;28;20177;-79
2022/05/06 03:07:36;;;;;;;4.30;3.95;;;;;;;11.49;100.00;99872.97;5090301;28;20028;-81
2022/05/06 03:10:03;;;;;;;4.03;3.72;;;;;;;11.48;100.00;99876.63;5090125;28;20028;-80
2022/05/06 03:12:34;;;;;;;4.13;3.83;;;;;;;11.49;100.00;99872.97;5089986;28;20092;-80
2022/05/06 03:15:07;;;;;;;3.92;3.63;;;;;;;11.51;100.00;99878.97;5090034;28;20031;-79
2022/05/06 03:17:38;;;;;;;4.10;3.80;;;;;;;11.52;100.00;99874.50;5089721;28;20036;-80
2022/05/06 03:20:07;;;;;;;4.10;3.70;;;;;;;11.54;100.00;99867.28;5089517;28;20107;-80
2022/05/06 03:22:46;;;;;;;3.90;3.60;;;;;;;11.57;100.00;99873.13;5091561;28;20103;-80
2022/05/06 03:25:13;;;;;;;3.47;3.22;;;;;;;11.57;100.00;99867.81;5091057;28;20028;-79
2022/05/06 03:30:25;;;;;;;3.30;3.10;;;;;;;11.59;100.00;99857.97;5087931;28;20073;-80
2022/05/06 03:32:56;;;;;;;3.85;3.50;;;;;;;11.60;100.00;99859.63;5089549;28;20584;-80
2022/05/06 03:35:23;;;;;;;3.65;3.35;;;;;;;11.60;100.00;99867.56;5089316;28;20039;-80
2022/05/06 03:37:52;;;;;;;3.20;3.00;;;;;;;11.61;100.00;99866.56;5089780;28;20581;-79
2022/05/06 03:40:18;;;;;;;3.25;3.05;;;;;;;11.62;100.00;99860.31;5085177;28;20028;-80
2022/05/06 03:42:44;;;;;;;3.60;3.40;;;;;;;11.61;100.00;99866.56;5089405;28;20101;-79
2022/05/06 03:45:10;;;;;;;3.20;3.00;;;;;;;11.61;100.00;99856.00;5089283;28;20067;-78
2022/05/06 03:47:37;;;;;;;4.00;3.63;;;;;;;11.61;100.00;99861.28;5072589;28;20040;-78
2022/05/06 03:52:49;;;;;;;3.38;3.17;;;;;;;11.60;100.00;99864.91;5085764;28;20042;-79
2022/05/06 03:55:15;;;;;;;3.50;3.30;;;;;;;11.61;100.00;99863.91;5090577;28;20028;-79
2022/05/06 03:57:42;;;;;;;3.75;3.47;;;;;;;11.63;100.00;99864.63;5089319;28;20182;-79
2022/05/06 04:00:10;;;;;;;3.40;3.20;;;;;;;11.65;100.00;99861.84;5089108;28;20119;-79
2022/05/06 04:02:43;;;;;;;3.20;3.00;;;;;;;11.68;100.00;99862.38;5090571;28;20032;-79
2022/05/06 04:05:13;;;;;;;3.25;3.05;;;;;;;11.70;100.00;99864.88;5088668;28;20473;-80
2022/05/06 04:07:38;;;;;;;3.10;2.90;;;;;;;11.68;100.00;99862.38;5089188;28;20043;-79
2022/05/06 04:10:05;;;;;;;3.10;2.90;;;;;;;11.68;100.00;99866.84;5088917;28;20024;-80
2022/05/06 04:12:32;;;;;;;2.72;2.63;;;;;;;11.67;100.00;99866.00;5089385;28;20039;-79
2022/05/06 04:15:04;;;;;;;3.10;2.90;;;;;;;11.72;100.00;99874.31;5089118;28;20036;-80
2022/05/06 04:17:30;;;;;;;2.42;2.33;;;;;;;11.73;100.00;99877.81;5088800;28;20028;-79
2022/05/06 04:25:28;;;;;;;3.28;3.03;;;;;;;11.74;100.00;99877.72;5113775;28;20036;-78
2022/05/06 04:27:54;;;;;;;2.80;2.60;;;;;;;11.76;100.00;99885.50;5088833;28;20044;-79
2022/05/06 04:30:20;;;;;;;2.40;2.30;;;;;;;11.74;100.00;99888.28;5088953;28;20024;-79
2022/05/06 04:32:59;;;;;;;2.28;2.17;;;;;;;11.76;100.00;99891.63;5086628;28;20097;-79
2022/05/06 04:35:25;;;;;;;2.85;2.65;;;;;;;11.77;100.00;99890.66;5088320;28;20067;-78
2022/05/06 04:37:51;;;;;;;2.90;2.70;;;;;;;11.78;100.00;99896.78;5088877;28;20060;-79
2022/05/06 04:40:18;;;;;;;2.80;2.60;;;;;;;11.78;100.00;99889.66;5088450;28;20039;-79
2022/05/06 04:42:45;;;;;;;3.17;2.35;;;;;;;11.79;100.00;99898.44;5088748;28;20028;-79
2022/05/06 04:45:12;;;;;;;2.63;2.50;;;;;;;11.78;100.00;99896.78;5088503;28;20067;-79
2022/05/06 04:47:47;;;;;;;2.35;2.25;;;;;;;11.76;100.00;99902.19;5085069;28;20179;-79
2022/05/06 04:50:12;;;;;;;2.33;2.22;;;;;;;11.74;100.00;99901.50;5089743;28;20032;-80
2022/05/06 04:52:38;;;;;;;2.53;2.33;;;;;;;11.71;100.00;99901.75;5092184;28;20429;-79
2022/05/06 04:55:04;;;;;;;2.53;2.42;;;;;;;11.71;100.00;99899.13;5093800;28;20028;-79
2022/05/06 04:57:29;;;;;;;2.58;2.47;;;;;;;11.66;100.00;99896.06;5092541;28;20101;-79
2022/05/06 04:59:56;;;;;;;2.55;2.35;;;;;;;11.65;100.00;99896.22;5092476;28;20472;-79
2022/05/06 05:02:21;;;;;;;2.50;2.40;;;;;;;11.65;100.00;99904.97;5091915;28;20093;-79
2022/05/06 05:04:56;;;;;;;2.33;2.22;;;;;;;11.64;100.00;99903.31;5075392;28;20028;-78
2022/05/06 05:07:23;;;;;;;2.72;2.55;;;;;;;11.65;100.00;99904.97;5088098;28;20135;-77
2022/05/06 05:09:54;;;;;;;2.80;2.60;;;;;;;11.64;100.00;99913.88;5092297;28;20030;-78
2022/05/06 05:12:24;;;;;;;2.97;2.78;;;;;;;11.68;100.00;99915.25;5091731;28;20050;-76
2022/05/06 05:14:51;;;;;;;2.35;2.20;;;;;;;11.70;100.00;99921.25;5091817;28;20044;-76
2022/05/06 05:17:20;;;;;;;2.95;2.80;;;;;;;11.72;100.00;99916.63;5087793;28;20031;-74
2022/05/06 05:19:46;;;;;;;2.88;2.67;;;;;;;11.72;100.00;99911.34;5091323;28;20032;-75
2022/05/06 05:22:12;;;;;;;3.80;3.50;;;;;;;11.71;100.00;99914.97;5090103;28;20020;-74
2022/05/06 05:24:40;;;;;;;3.42;3.22;;;;;;;11.75;100.00;99921.69;5091078;28;20137;-76
2022/05/06 05:27:06;;;;;;;3.47;3.17;;;;;;;11.78;100.00;99926.66;5090634;28;20040;-76
2022/05/06 05:29:32;;;;;;;3.00;2.45;;;;;;;11.75;100.00;99924.31;5090620;28;20023;-76
2022/05/06 05:31:58;;;;;;;2.35;2.20;;;;;;;11.74;100.00;99916.53;5090279;28;20538;-77
2022/05/06 05:34:25;;;;;;;2.53;2.40;;;;;;;11.76;100.00;99920.72;5087463;28;20414;-75
2022/05/06 05:36:51;;;;;;;2.92;2.20;;;;;;;11.74;100.00;99927.09;4736869;28;10000312;-76
2022/05/06 05:39:17;;;;;;;2.97;2.17;;;;;;;11.75;100.00;99924.31;5089004;28;20448;-77
2022/05/06 05:41:44;;;;;;;2.55;2.35;;;;;;;11.77;100.00;99925.03;5088371;28;20028;-76
2022/05/06 05:49:43;;;;;;;2.20;2.00;;;;;;;11.79;100.00;99928.34;5087902;28;20529;-75
2022/05/06 05:52:09;;;;;;;2.20;2.10;;;;;;;11.77;100.00;99925.03;5085579;28;20512;-76
2022/05/06 05:54:35;;;;;;;2.67;2.47;;;;;;;11.81;100.00;99918.47;5091787;28;20078;-75
2022/05/06 05:57:00;;;;;;;2.58;2.38;;;;;;;11.89;100.00;99925.72;5086564;28;20426;-75
2022/05/06 05:59:26;;;;;;;2.63;2.42;;;;;;;11.92;100.00;99921.94;5086540;28;20040;-76
2022/05/06 06:01:55;;;;;;;2.72;2.53;;;;;;;11.92;100.00;99924.56;5086922;28;20024;-75
2022/05/06 06:04:21;;;;;;;2.55;2.45;;;;;;;11.96;100.00;99939.19;5086828;28;20130;-76
2022/05/06 06:06:48;;;;;;;2.38;2.17;;;;;;;11.99;100.00;99933.59;5107702;28;20112;-75
2022/05/06 06:09:17;;;;;;;2.40;2.30;;;;;;;12.03;100.00;99930.53;5086337;28;20036;-76
2022/05/06 06:11:44;;;;;;;2.60;2.40;;;;;;;12.01;100.00;99947.53;5083609;28;20055;-75
2022/05/06 06:14:11;;;;;;;2.63;2.42;;;;;;;12.00;100.00;99935.28;5084059;28;20081;-77
2022/05/06 06:16:37;;;;;;;2.50;2.30;;;;;;;12.02;100.00;99939.44;5083820;28;20035;-74
2022/05/06 06:19:03;;;;;;;2.80;2.40;;;;;;;12.07;100.00;99936.38;4381508;28;10021637;-73
2022/05/06 06:21:34;;;;;;;2.67;2.47;;;;;;;12.08;100.00;99938.03;5084965;28;20036;-74
2022/05/06 06:24:00;;;;;;;2.30;2.20;;;;;;;12.07;100.00;99941.69;5071197;28;20030;-76
2022/05/06 06:26:25;;;;;;;3.85;3.50;;;;;;;12.10;100.00;99946.66;5088078;28;20028;-73
2022/05/06 06:28:52;;;;;;;2.75;2.55;;;;;;;12.15;100.00;99947.91;5051496;28;1095247;-75
2022/05/06 06:31:18;;;;;;;3.10;2.90;;;;;;;12.22;100.00;99950.81;5090928;28;20488;-75
2022/05/06 06:33:45;;;;;;;3.00;2.80;;;;;;;12.20;100.00;99950.13;5090546;28;20016;-74
2022/05/06 06:36:17;;;;;;;4.15;2.90;;;;;;;12.21;100.00;99957.91;5089063;28;20047;-75
2022/05/06 06:38:43;;;;;;;2.80;2.60;;;;;;;12.25;100.00;99961.13;5089705;28;20115;-76
2022/05/06 06:41:09;;;;;;;2.78;2.67;;;;;;;12.29;100.00;99952.75;5092905;28;20122;-75
2022/05/06 06:43:34;;;;;;;2.63;2.53;;;;;;;12.31;100.00;99955.25;5097057;28;20402;-75
2022/05/06 06:46:19;;;;;;;2.53;2.42;;;;;;;12.30;100.00;99950.94;5097444;28;20041;-76
2022/05/06 06:49:00;;;;;;;3.03;2.78;;;;;;;12.30;100.00;99964.16;5097447;28;20093;-76
2022/05/06 06:51:37;;;;;;;3.13;2.65;;;;;;;12.30;100.00;99961.53;5094328;28;20035;-75
2022/05/06 06:54:03;;;;;;;2.72;2.58;;;;;;;12.30;100.00;99964.16;5095515;28;20039;-75
2022/05/06 06:56:28;;;;;;;2.25;2.15;;;;;;;12.32;100.00;99952.44;5093062;28;20032;-76
2022/05/06 06:58:55;;;;;;;2.60;2.35;;;;;;;12.29;100.00;99958.03;5092103;28;20085;-76
2022/05/06 07:01:21;;;;;;;2.65;2.45;;;;;;;12.33;100.00;99961.22;5093778;28;20042;-75
2022/05/06 07:03:46;;;;;;;2.50;2.40;;;;;;;12.34;100.00;99960.25;5096084;28;20031;-76
2022/05/06 07:11:56;;;;;;;2.30;2.20;;;;;;;12.27;100.00;99960.00;5090653;28;20474;-75
2022/05/06 07:14:25;;;;;;;2.40;2.30;;;;;;;12.30;100.00;99969.47;5088108;28;20479;-75
2022/05/06 07:16:52;;;;;;;2.65;2.55;;;;;;;12.28;100.00;99966.13;5090688;28;20060;-76
2022/05/06 07:19:20;;;;;;;2.70;2.50;;;;;;;12.29;100.00;99967.78;5085404;28;20032;-77
2022/05/06 07:21:45;;;;;;;3.35;2.80;;;;;;;12.39;100.00;99963.28;5090042;28;20059;-75
2022/05/06 07:24:11;;;;;;;2.80;2.60;;;;;;;12.40;100.00;99972.91;5089449;28;20463;-76
2022/05/06 07:26:36;;;;;;;3.05;2.85;;;;;;;12.34;100.00;99970.84;5089498;28;20114;-76
2022/05/06 07:29:02;;;;;;;3.35;3.10;;;;;;;12.30;100.00;99974.75;5089502;28;20044;-76
2022/05/06 07:31:28;;;;;;;3.33;3.13;;;;;;;12.29;100.00;99978.38;5088468;28;20039;-76
2022/05/06 07:33:54;;;;;;;3.55;3.35;;;;;;;12.27;100.00;99980.31;5090507;28;20115;-76
2022/05/06 07:36:19;;;;;;;4.30;4.00;;;;;;;12.31;100.00;99973.78;5090359;28;20032;-76
2022/05/06 07:38:45;;;;;;;3.80;3.55;;;;;;;12.31;100.00;99973.78;5090676;28;20118;-77
2022/05/06 07:41:11;;;;;;;4.47;4.18;;;;;;;12.33;100.00;99977.09;5089680;28;20046;-77
2022/05/06 07:43:36;;;;;;;4.55;4.25;;;;;;;12.37;100.00;99975.81;5089639;28;20154;-77
2022/05/06 07:46:02;;;;;;;4.95;4.65;;;;;;;12.37;100.00;99975.81;5089641;28;20115;-77
2022/05/06 07:48:27;;;;;;;4.90;4.45;;;;;;;12.39;100.00;99973.88;5089774;28;20414;-76
2022/05/06 07:50:53;;;;;;;4.72;4.40;;;;;;;12.41;100.00;99979.03;5090183;28;20024;-76
2022/05/06 07:53:19;;;;;;;4.63;4.30;;;;;;;12.42;100.00;99981.53;5089741;28;20027;-76
2022/05/06 07:55:45;;;;;;;4.97;4.57;;;;;;;12.47;100.00;99984.59;5090401;28;20381;-76
2022/05/06 07:58:12;;;;;;;5.22;4.82;;;;;;;12.49;100.00;99987.91;5088996;28;20024;-76
2022/05/06 08:00:37;;;;;;;4.60;4.30;;;;;;;12.50;100.00;99988.75;5089440;28;20074;-77
2022/05/06 08:05:49;;;;;;;5.57;5.18;;;;;;;12.55;100.00;100000.56;5086040;28;20488;-77
2022/05/06 08:08:15;;;;;;;5.38;4.97;;;;;;;12.62;100.00;100012.25;5089612;28;20032;-77
2022/05/06 08:10:41;;;;;;;6.03;5.60;;;;;;;12.62;100.00;100006.97;5088640;28;20089;-76
2022/05/06 08:13:06;;;;;;;5.30;4.80;;;;;;;12.66;100.00;100008.31;5087687;28;20031;-76
2022/05/06 08:15:32;;;;;;;5.38;4.97;;;;;;;12.63;100.00;100013.94;5089023;28;20090;-76
2022/05/06 08:17:58;;;;;;;5.30;4.90;;;;;;;12.59;100.00;100011.72;5088489;28;20028;-76
2022/05/06 08:20:24;;;;;;;4.47;4.18;;;;;;;12.57;100.00;100019.78;5089330;28;20473;-76
2022/05/06 08:22:50;;;;;;;5.10;4.72;;;;;;;12.52;100.00;100010.63;5089843;28;20035;-76
2022/05/06 08:25:15;;;;;;;4.43;4.13;;;;;;;12.53;100.00;100009.66;5089670;28;20032;-76
2022/05/06 08:27:44;;;;;;;4.63;4.32;;;;;;;12.58;100.00;100015.34;5092675;28;20040;-76
2022/05/06 08:30:13;;;;;;;5.85;5.35;;;;;;;12.63;100.00;100013.94;5092801;28;20079;-76
2022/05/06 08:32:39;;;;;;;4.50;4.20;;;;;;;12.76;100.00;100013.59;5093670;28;20036;-77
2022/05/06 08:35:30;;;;;;;4.72;4.32;;;;;;;12.85;100.00;100017.19;5091643;28;20446;-77
2022/05/06 08:37:57;;;;;;;3.90;3.70;;;;;;;12.81;100.00;100026.41;5094439;28;20040;-76
2022/05/06 08:40:25;;;;;;;4.05;3.75;;;;;;;12.86;100.00;100021.50;5093314;28;20031;-76
2022/05/06 08:42:52;;;;;;;4.63;4.13;;;;;;;12.88;100.00;100028.34;5093725;28;20503;-78
2022/05/06 08:51:12;;;;;;;4.00;3.70;;;;;;;13.01;100.00;100041.25;5093114;28;20036;-76
2022/05/06 08:53:39;;;;;;;3.75;3.53;;;;;;;12.95;100.00;100033.88;5093437;28;20037;-77
2022/05/06 08:56:05;;;;;;;4.07;3.78;;;;;;;12.93;100.00;100046.44;5093154;28;20024;-78
2022/05/06 08:58:33;;;;;;;3.90;3.60;;;;;;;12.85;100.00;100043.66;5093399;28;20099;-77
2022/05/06 09:01:11;;;;;;;3.67;3.47;;;;;;;12.85;100.00;100048.97;5092449;28;20058;-77
2022/05/06 09:03:38;;;;;;;3.97;3.72;;;;;;;12.91;100.00;100053.69;5092900;28;20063;-76
2022/05/06 09:06:04;;;;;;;3.92;3.63;;;;;;;12.84;100.00;100052.63;5092917;28;20045;-78
2022/05/06 09:08:43;;;;;;;4.10;3.40;;;;;;;12.79;100.00;100050.38;5093417;28;20156;-77
2022/05/06 09:11:09;;;;;;;3.42;3.05;;;;;;;12.82;100.00;100059.84;5092866;28;20036;-76
2022/05/06 09:13:36;;;;;;;3.92;3.63;;;;;;;12.91;100.00;100058.97;5092996;28;20519;-77
2022/05/06 09:16:39;;;;;;;4.80;3.75;;;;;;;12.96;100.00;100067.34;5092252;28;20499;-77
2022/05/06 09:19:11;;;;;;;3.60;3.30;;;;;;;12.94;100.00;100069.28;5090909;28;20135;-76
2022/05/06 09:21:38;;;;;;;3.88;3.55;;;;;;;13.02;100.00;100066.72;5092798;28;20541;-76
2022/05/06 09:24:19;;;;;;;3.28;3.08;;;;;;;13.09;100.00;100078.44;5092624;28;20391;-76
2022/05/06 09:27:05;;;;;;;3.13;2.92;;;;;;;13.12;100.00;100067.59;5092807;28;20042;-75
2022/05/06 09:29:41;;;;;;;3.58;3.13;;;;;;;13.16;100.00;100073.41;5091006;28;20082;-77
2022/05/06 09:32:31;;;;;;;;;;;;;;;13.19;100.00;100089.03;5090764;28;20109;-76
2022/05/06 09:35:13;;;;;;;3.22;2.92;;;;;;;13.15;100.00;100083.16;5092683;28;19941;-77
2022/05/06 09:37:41;;;;;;;2.65;2.45;;;;;;;13.15;100.00;100087.63;5092313;28;20137;-77
2022/05/06 09:40:20;;;;;;;3.17;2.97;;;;;;;13.12;100.00;100088.78;5092207;28;20179;-77
2022/05/06 09:42:59;;;;;;;3.05;2.80;;;;;;;13.14;100.00;100086.78;5092515;28;20463;-76
2022/05/06 09:45:39;;;;;;;3.30;3.10;;;;;;;13.19;100.00;100095.16;5089041;28;20047;-77
2022/05/06 09:48:08;;;;;;;3.50;3.30;;;;;;;13.23;100.00;100079.81;5091538;28;20036;-77
2022/05/06 09:50:39;;;;;;;3.45;3.25;;;;;;;13.25;100.00;100083.16;5092347;28;20037;-76
2022/05/06 09:53:10;;;;;;;3.72;3.42;;;;;;;13.22;100.00;100089.56;5091982;28;20040;-77
2022/05/06 09:55:38;;;;;;;3.47;3.28;;;;;;;13.35;100.00;100089.22;5092233;28;20039;-77
2022/05/06 09:58:04;;;;;;;3.42;3.13;;;;;;;13.34;100.00;100092.84;5091997;28;20028;-77
2022/05/06 10:00:32;;;;;;;3.10;2.90;;;;;;;13.35;100.00;100097.19;5092109;28;20039;-77
2022/05/06 10:02:59;;;;;;;3.13;2.92;;;;;;;13.33;100.00;100096.47;5091527;28;20031;-77
2022/05/06 10:05:24;;;;;;;3.78;3.47;;;;;;;13.33;100.00;100104.44;5091429;28;20135;-77
2022/05/06 10:07:55;;;;;;;3.97;3.72;;;;;;;13.33;100.00;100096.47;5092541;28;20110;-77
2022/05/06 10:10:22;;;;;;;;;;;;;;;13.30;100.00;100099.44;5088517;28;20111;-77
2022/05/06 10:12:54;;;;;;;3.22;3.03;;;;;;;13.33;100.00;100092.00;5088177;28;19916;-77
2022/05/06 10:15:23;;;;;;;2.80;2.60;;;;;;;13.41;100.00;100088.63;5091129;28;20073;-76
2022/05/06 10:17:56;;;;;;;3.53;3.22;;;;;;;13.35;100.00;100095.38;5087816;28;20032;-76
2022/05/06 10:20:33;;;;;;;3.17;2.97;;;;;;;13.33;100.00;100099.13;5087558;28;20043;-76
2022/05/06 10:23:01;;;;;;;3.30;3.10;;;;;;;13.30;100.00;100102.94;5091659;28;20511;-76
2022/05/06 10:25:42;;;;;;;3.10;2.90;;;;;;;13.36;100.00;100096.19;5091459;28;20568;-79
2022/05/06 10:34:12;;;;;;;2.97;2.78;;;;;;;13.33;100.00;100112.38;5089575;28;20471;-77
2022/05/06 10:36:43;;;;;;;3.10;2.90;;;;;;;13.33;100.00;100105.25;5091177;28;20377;-77
2022/05/06 10:39:21;;;;;;;3.50;3.30;;;;;;;13.33;100.00;100102.63;5090850;28;20040;-77
2022/05/06 10:42:01;;;;;;;3.70;3.40;;;;;;;13.33;100.00;100107.09;5091118;28;20059;-77
2022/05/06 10:44:40;;;;;;;;;;;;;;;13.38;100.00;100103.00;5088693;28;20117;-77
2022/05/06 10:47:11;;;;;;;3.33;3.13;;;;;;;13.39;100.00;100102.03;5090772;28;19943;-77
2022/05/06 10:49:39;;;;;;;4.00;3.70;;;;;;;13.36;100.00;100101.50;5090146;28;20094;-78
2022/05/06 10:52:22;;;;;;;3.47;3.28;;;;;;;13.41;100.00;100104.53;5090354;28;20020;-78
2022/05/06 10:54:50;;;;;;;4.18;3.88;;;;;;;13.39;100.00;100104.69;5087095;28;20112;-77
2022/05/06 10:57:23;;;;;;;4.28;3.97;;;;;;;13.41;100.00;100094.78;5090712;28;20024;-77
2022/05/06 10:59:58;;;;;;;4.43;4.13;;;;;;;13.35;100.00;100105.97;5087366;28;20088;-78
2022/05/06 11:02:27;;;;;;;3.88;3.60;;;;;;;13.31;100.00;100099.28;5087044;28;20464;-77
2022/05/06 11:04:55;;;;;;;4.50;4.20;;;;;;;13.32;100.00;100100.94;5090622;28;20036;-76
2022/05/06 11:07:21;;;;;;;4.03;3.72;;;;;;;13.37;100.00;100093.38;5090081;28;20028;-77
2022/05/06 11:09:47;;;;;;;3.95;3.65;;;;;;;13.38;100.00;100097.69;5090426;28;20400;-77
2022/05/06 11:12:29;;;;;;;4.20;3.90;;;;;;;13.32;100.00;100095.66;5088956;28;20035;-77
2022/05/06 11:14:55;;;;;;;3.58;3.28;;;;;;;13.32;100.00;100093.00;5087556;28;20035;-76
2022/05/06 11:17:22;;;;;;;4.22;3.67;;;;;;;13.26;100.00;100096.22;5090005;28;20120;-76
2022/05/06 11:19:48;;;;;;;3.90;3.60;;;;;;;13.28;100.00;100094.28;5086544;28;20024;-76
2022/05/06 11:22:15;;;;;;;4.05;3.60;;;;;;;13.34;100.00;100101.66;5088289;28;20067;-78
2022/05/06 11:24:40;;;;;;;3.75;3.50;;;;;;;13.33;100.00;100099.13;5090600;28;20150;-77
2022/05/06 11:27:17;;;;;;;3.90;3.63;;;;;;;13.32;100.00;100103.59;5090413;28;20052;-75
2022/05/06 11:29:56;;;;;;;3.53;3.20;;;;;;;13.32;100.00;100100.09;5090539;28;20403;-76
2022/05/06 11:32:26;;;;;;;4.22;3.83;;;;;;;13.43;100.00;100106.03;5086530;28;20463;-76
2022/05/06 11:34:59;;;;;;;4.13;3.83;;;;;;;13.46;100.00;100097.81;5086841;28;20114;-76
2022/05/06 11:37:26;;;;;;;4.18;3.88;;;;;;;13.42;100.00;100104.41;5086055;28;20439;-76
2022/05/06 11:40:18;;;;;;;4.10;3.80;;;;;;;13.48;100.00;100103.81;5089666;28;20028;-77
2022/05/06 11:42:39;;;;;;;4.85;4.55;;;;;;;13.50;100.00;100109.78;5089667;28;20327;-76
2022/05/06 11:47:51;;;;;;;4.53;4.20;;;;;;;13.58;100.00;100101.09;5086259;28;20110;-76
2022/05/06 11:50:17;;;;;;;4.47;4.18;;;;;;;13.72;100.00;100113.03;5089888;28;20535;-76
2022/05/06 11:52:45;;;;;;;4.22;3.90;;;;;;;13.73;100.00;100104.06;5088470;28;20123;-77
2022/05/06 11:55:14;;;;;;;4.78;4.38;;;;;;;13.89;100.00;100115.69;5090172;28;20535;-77
2022/05/06 11:57:40;;;;;;;4.63;4.30;;;;;;;13.96;100.00;100115.91;5088336;28;20044;-77
2022/05/06 12:00:08;;;;;;;5.63;4.55;;;;;;;14.01;100.00;100118.97;5089438;28;20376;-76
2022/05/06 12:02:47;;;;;;;4.77;4.47;;;;;;;13.85;100.00;100113.47;5089392;28;20425;-76
2022/05/06 12:05:13;;;;;;;5.00;4.60;;;;;;;13.87;100.00;100112.34;5089232;28;20119;-77
2022/05/06 12:07:46;;;;;;;4.97;4.57;;;;;;;13.72;100.00;100113.03;5089329;28;20058;-77
2022/05/06 12:10:26;;;;;;;4.90;4.60;;;;;;;13.64;100.00;100105.81;5088790;28;20472;-77
2022/05/06 12:13:06;;;;;;;4.90;4.60;;;;;;;13.47;100.00;100115.41;5086018;28;20028;-77
2022/05/06 12:15:36;;;;;;;5.95;5.45;;;;;;;13.45;100.00;100104.09;5087431;28;20040;-76
2022/05/06 12:18:02;;;;;;;5.22;4.93;;;;;;;13.40;100.00;100116.97;5089151;28;20067;-76